KADG/ADG METAR and TAF weather

Enter ICAO airport designator
Station Type Date Time Source
KADG METAR 2019/12/10 02:53 UTC NOAA

KADG 100253Z AUTO 27013G25KT 10SM BKN021 BKN030 OVC041 09/06 A2953 RMK AO2 PK WND 29026/0229 SLP005 60000 T00890061 53017


Station Type Date Time Source
KADG Decoded METAR 2019/12/10 02:53 UTC NOAA

ADRIAN LENAWEE COUNTY AIRPORT, MI, United States (KADG) 41-52N 84-05W 241M
Dec 09, 2019 - 09:53 PM EST / 2019.12.10 0253 UTC
Wind: from the W (270 degrees) at 15 MPH (13 KT) gusting to 29 MPH (25 KT):0
Visibility: 10 mile(s):0
Sky conditions: overcast
Temperature: 48.0 F (8.9 C)
Dew Point: 43.0 F (6.1 C)
Relative Humidity: 82%
Pressure (altimeter): 29.53 in. Hg (1000 hPa)
Pressure tendency: 0.05 inches (1.7 hPa) higher than three hours ago
ob: KADG 100253Z AUTO 27013G25KT 10SM BKN021 BKN030 OVC041 09/06 A2953 RMK AO2 PK WND 29026/0229 SLP005 60000 T00890061 53017
cycle: 3

Station Type Date Time Source
KADG TAF UTC NOAA

Error!

Example: see airport list